createdAt,value
2023-05-26T00:03:37.495Z,18.56
2023-05-26T00:08:31.120Z,18.61
2023-05-26T00:13:25.649Z,18.65
2023-05-26T00:18:21.962Z,17.93
2023-05-26T00:23:15.354Z,18.53
2023-05-26T00:28:08.526Z,18.54
2023-05-26T00:33:03.704Z,18.44
2023-05-26T00:37:57.247Z,18.44
2023-05-26T00:42:50.601Z,18.36
2023-05-26T00:47:43.866Z,18.40
2023-05-26T00:52:38.869Z,18.38
2023-05-26T00:57:32.349Z,18.40
2023-05-26T01:02:26.776Z,18.39
2023-05-26T01:07:20.164Z,18.34
2023-05-26T01:12:22.623Z,18.04
2023-05-26T01:17:22.501Z,18.08
2023-05-26T01:22:25.221Z,18.24
2023-05-26T01:27:34.481Z,18.31
2023-05-26T01:32:29.590Z,18.21
2023-05-26T01:37:22.824Z,18.25
2023-05-26T01:42:30.665Z,18.27
2023-05-26T01:47:26.709Z,18.26
2023-05-26T01:52:22.870Z,18.18
2023-05-26T01:57:17.872Z,18.14
2023-05-26T02:02:11.267Z,18.13
2023-05-26T02:07:08.368Z,18.05
2023-05-26T02:12:04.326Z,18.08
2023-05-26T02:16:57.847Z,17.99
2023-05-26T02:21:51.198Z,18.00
2023-05-26T02:26:46.002Z,17.90
2023-05-26T02:31:43.296Z,17.88
2023-05-26T02:36:37.321Z,17.86
2023-05-26T02:41:30.712Z,17.09
2023-05-26T02:46:24.020Z,17.57
2023-05-26T02:51:18.858Z,17.85
2023-05-26T02:56:12.056Z,17.82
2023-05-26T03:01:05.793Z,17.89
2023-05-26T03:06:00.019Z,17.88
2023-05-26T03:11:10.567Z,17.79
2023-05-26T03:16:07.387Z,17.87
2023-05-26T03:21:00.665Z,17.96
2023-05-26T03:25:55.867Z,17.93
2023-05-26T03:30:50.812Z,17.63
2023-05-26T03:35:44.184Z,17.94
2023-05-26T03:40:37.775Z,18.08
2023-05-26T03:45:33.720Z,18.15
2023-05-26T03:50:27.824Z,18.20
2023-05-26T03:55:21.488Z,18.19
2023-05-26T04:00:17.456Z,18.08
2023-05-26T04:05:12.188Z,18.33
2023-05-26T04:10:07.043Z,18.19
2023-05-26T04:15:00.222Z,18.42
2023-05-26T04:19:54.051Z,17.78
2023-05-26T04:24:48.872Z,18.53
2023-05-26T04:29:49.723Z,18.45
2023-05-26T04:35:09.641Z,18.76
2023-05-26T04:40:08.442Z,18.83
2023-05-26T04:45:01.864Z,18.83
2023-05-26T04:49:56.903Z,18.86
2023-05-26T04:54:52.984Z,18.89
2023-05-26T04:59:48.532Z,18.87
2023-05-26T05:04:46.835Z,19.04
2023-05-26T05:09:40.199Z,19.20
2023-05-26T05:14:34.152Z,18.35
2023-05-26T05:19:28.919Z,19.44
2023-05-26T05:24:22.179Z,18.63
2023-05-26T05:29:16.673Z,19.56
2023-05-26T05:34:14.811Z,20.03
2023-05-26T05:39:11.370Z,20.29
2023-05-26T05:44:06.334Z,20.44
2023-05-26T05:48:59.633Z,20.47
2023-05-26T05:54:00.330Z,20.45
2023-05-26T05:58:56.822Z,20.24
2023-05-26T06:03:50.591Z,20.65
2023-05-26T06:08:45.946Z,20.75
2023-05-26T06:13:39.878Z,20.83
2023-05-26T06:18:34.997Z,20.62
2023-05-26T06:23:30.268Z,21.03
2023-05-26T06:28:24.097Z,21.27
2023-05-26T06:33:17.481Z,21.55
2023-05-26T06:38:12.292Z,21.72
2023-05-26T06:43:05.591Z,21.88
2023-05-26T06:47:59.357Z,21.85
2023-05-26T06:52:53.417Z,21.90
2023-05-26T07:02:44.544Z,21.82
2023-05-26T07:07:51.213Z,21.86
2023-05-26T07:12:44.753Z,22.11
2023-05-26T07:17:53.698Z,22.56
2023-05-26T07:22:47.365Z,22.83
2023-05-26T07:27:49.793Z,22.88
2023-05-26T07:32:43.277Z,23.01
2023-05-26T07:37:41.482Z,23.18
2023-05-26T07:42:35.657Z,23.31
2023-05-26T07:47:32.567Z,23.41
2023-05-26T07:52:26.208Z,23.67
2023-05-26T07:57:29.407Z,23.93
2023-05-26T08:02:23.488Z,24.08
2023-05-26T08:07:24.382Z,24.40
2023-05-26T08:12:17.789Z,24.13
2023-05-26T08:17:12.414Z,24.55
2023-05-26T08:22:06.658Z,25.13
2023-05-26T08:26:59.890Z,25.42
2023-05-26T08:31:53.300Z,25.99
2023-05-26T08:36:48.076Z,26.32
2023-05-26T08:41:49.520Z,26.62
2023-05-26T08:46:42.868Z,26.95
2023-05-26T08:51:38.570Z,27.01
2023-05-26T08:56:35.262Z,26.79
2023-05-26T09:01:28.687Z,26.64
2023-05-26T09:06:22.563Z,26.63
2023-05-26T09:11:23.787Z,26.70
2023-05-26T09:16:18.481Z,27.29
2023-05-26T09:21:11.635Z,27.76
2023-05-26T09:26:08.551Z,27.96
2023-05-26T09:31:01.706Z,28.45
2023-05-26T09:35:56.271Z,29.24
2023-05-26T09:40:50.905Z,29.91
2023-05-26T09:45:44.175Z,30.07
2023-05-26T09:50:38.978Z,30.43
2023-05-26T09:55:33.758Z,30.63
2023-05-26T10:00:27.947Z,30.61
2023-05-26T10:05:23.622Z,30.47
2023-05-26T10:10:18.295Z,30.87
2023-05-26T10:15:13.308Z,31.31
2023-05-26T10:20:08.346Z,31.55
2023-05-26T10:25:05.583Z,31.73
2023-05-26T10:30:06.285Z,32.41
2023-05-26T10:35:00.886Z,32.44
2023-05-26T10:39:54.319Z,32.45
2023-05-26T10:44:50.136Z,32.64
2023-05-26T10:49:43.825Z,32.83
2023-05-26T10:54:38.388Z,33.10
2023-05-26T10:59:33.237Z,33.64
2023-05-26T11:04:42.069Z,33.81
2023-05-26T11:09:35.222Z,33.27
2023-05-26T11:14:31.384Z,32.23
2023-05-26T11:19:33.737Z,31.13
2023-05-26T11:24:27.887Z,30.14
2023-05-26T11:29:24.196Z,29.37
2023-05-26T11:34:18.909Z,28.99
2023-05-26T11:39:12.104Z,28.78
2023-05-26T11:44:09.568Z,28.62
2023-05-26T11:49:02.838Z,28.46
2023-05-26T11:53:58.630Z,28.62
2023-05-26T11:58:56.823Z,30.02
2023-05-26T12:03:52.848Z,31.69
2023-05-26T12:08:53.477Z,32.74
2023-05-26T12:13:52.608Z,33.40
2023-05-26T12:18:46.095Z,32.68
2023-05-26T12:23:39.889Z,32.03
2023-05-26T12:28:32.989Z,32.46
2023-05-26T12:33:29.347Z,33.41
2023-05-26T12:38:23.186Z,34.08
2023-05-26T12:43:17.808Z,34.44
2023-05-26T12:48:11.227Z,35.46
2023-05-26T12:53:05.942Z,35.96
2023-05-26T12:57:59.216Z,36.40
2023-05-26T13:02:52.509Z,36.83
2023-05-26T13:07:45.863Z,36.90
2023-05-26T13:12:42.685Z,37.05
2023-05-26T13:17:36.220Z,37.42
2023-05-26T13:22:29.537Z,37.40
2023-05-26T13:27:22.745Z,37.36
2023-05-26T13:32:17.832Z,37.23
2023-05-26T13:37:11.093Z,37.38
2023-05-26T13:42:04.997Z,37.39
2023-05-26T13:46:58.322Z,37.35
2023-05-26T13:51:53.013Z,37.50
2023-05-26T13:56:46.804Z,37.47
2023-05-26T14:01:40.991Z,37.44
2023-05-26T14:06:37.470Z,37.20
2023-05-26T14:11:32.789Z,36.74
2023-05-26T14:16:26.039Z,36.07
2023-05-26T14:21:42.669Z,34.99
2023-05-26T14:26:33.910Z,33.59
2023-05-26T14:31:27.148Z,32.45
2023-05-26T14:36:20.392Z,31.60
2023-05-26T14:41:13.600Z,30.93
2023-05-26T14:46:08.607Z,30.37
2023-05-26T14:51:02.685Z,30.01
2023-05-26T14:55:56.167Z,29.69
2023-05-26T15:00:49.352Z,29.28
2023-05-26T15:05:44.039Z,29.10
2023-05-26T15:10:37.317Z,28.91
2023-05-26T15:15:32.602Z,28.79
2023-05-26T15:20:26.761Z,28.58
2023-05-26T15:25:21.523Z,28.43
2023-05-26T15:35:13.391Z,28.27
2023-05-26T15:40:08.472Z,28.25
2023-05-26T15:45:05.849Z,28.16
2023-05-26T15:49:58.991Z,28.00
2023-05-26T15:54:52.239Z,27.97
2023-05-26T15:59:45.593Z,27.81
2023-05-26T16:04:40.327Z,27.77
2023-05-26T16:09:33.625Z,27.73
2023-05-26T16:14:26.871Z,27.68
2023-05-26T16:19:20.047Z,27.52
2023-05-26T16:24:14.616Z,27.08
2023-05-26T16:29:07.798Z,26.86
2023-05-26T16:34:01.088Z,26.36
2023-05-26T16:38:54.499Z,25.75
2023-05-26T16:43:49.417Z,25.60
2023-05-26T16:48:42.823Z,25.28
2023-05-26T16:53:36.074Z,24.88
2023-05-26T16:58:29.344Z,24.73
2023-05-26T17:03:24.002Z,24.50
2023-05-26T17:08:17.348Z,24.04
2023-05-26T17:13:10.885Z,24.23
2023-05-26T17:18:04.834Z,24.10
2023-05-26T17:22:59.586Z,24.06
2023-05-26T17:27:52.821Z,23.88
2023-05-26T17:32:46.131Z,23.72
2023-05-26T17:37:39.298Z,23.96
2023-05-26T17:42:34.153Z,23.91
2023-05-26T17:47:28.047Z,23.91
2023-05-26T17:52:21.918Z,23.88
2023-05-26T17:57:15.161Z,23.89
2023-05-26T18:02:10.551Z,23.84
2023-05-26T18:07:03.829Z,23.88
2023-05-26T18:11:57.017Z,23.86
2023-05-26T18:16:50.346Z,23.78
2023-05-26T18:21:45.017Z,23.83
2023-05-26T18:26:38.193Z,23.76
2023-05-26T18:31:31.881Z,23.76
2023-05-26T18:36:25.061Z,23.73
2023-05-26T18:41:20.027Z,23.69
2023-05-26T18:46:13.586Z,23.72
2023-05-26T18:51:07.585Z,23.66
2023-05-26T18:56:01.068Z,23.58
2023-05-26T19:00:56.213Z,23.54
2023-05-26T19:05:52.134Z,23.41
2023-05-26T19:10:45.362Z,23.43
2023-05-26T19:15:38.551Z,23.29
2023-05-26T19:20:33.415Z,23.19
2023-05-26T19:25:28.236Z,23.01
2023-05-26T19:30:22.006Z,22.66
2023-05-26T19:35:16.094Z,22.44
2023-05-26T19:40:11.436Z,21.88
2023-05-26T19:45:05.131Z,21.94
2023-05-26T19:49:59.356Z,21.74
2023-05-26T19:54:52.550Z,21.70
2023-05-26T19:59:47.183Z,21.46
2023-05-26T20:04:40.384Z,21.47
2023-05-26T20:09:34.253Z,21.41
2023-05-26T20:14:27.455Z,21.01
2023-05-26T20:19:22.204Z,21.26
2023-05-26T20:24:15.601Z,21.14
2023-05-26T20:29:08.784Z,21.05
2023-05-26T20:34:01.909Z,20.84
2023-05-26T20:38:56.773Z,20.76
2023-05-26T20:43:50.031Z,20.62
2023-05-26T20:48:44.407Z,20.45
2023-05-26T20:53:37.743Z,20.22
2023-05-26T20:58:32.268Z,19.98
2023-05-26T21:03:25.901Z,19.74
2023-05-26T21:08:19.257Z,19.57
2023-05-26T21:13:12.450Z,19.44
2023-05-26T21:18:07.134Z,19.04
2023-05-26T21:23:00.289Z,19.20
2023-05-26T21:27:53.638Z,19.04
2023-05-26T21:32:46.955Z,19.06
2023-05-26T21:37:41.583Z,19.02
2023-05-26T21:42:34.723Z,19.05
2023-05-26T21:47:27.925Z,19.01
2023-05-26T21:52:21.141Z,18.49
2023-05-26T21:57:15.812Z,18.91
2023-05-26T22:02:09.200Z,18.88
2023-05-26T22:07:02.383Z,18.90
2023-05-26T22:11:55.819Z,18.87
2023-05-26T22:16:50.463Z,18.63
2023-05-26T22:21:43.605Z,18.60
2023-05-26T22:26:36.784Z,18.49
2023-05-26T22:31:29.962Z,18.37
2023-05-26T22:36:24.511Z,18.19
2023-05-26T22:41:17.776Z,18.33
2023-05-26T22:46:11.082Z,18.28
2023-05-26T22:51:04.563Z,17.94
2023-05-26T22:56:04.836Z,18.24
2023-05-26T23:01:05.834Z,18.35
2023-05-26T23:05:59.235Z,18.42
2023-05-26T23:10:52.615Z,18.44
2023-05-26T23:15:47.092Z,18.26
2023-05-26T23:20:40.292Z,18.37
2023-05-26T23:25:33.585Z,18.02
2023-05-26T23:30:27.877Z,18.26
2023-05-26T23:35:22.393Z,18.26
2023-05-26T23:40:15.596Z,18.26
2023-05-26T23:45:10.023Z,18.23
2023-05-26T23:50:03.636Z,17.59
2023-05-26T23:54:58.195Z,18.16
2023-05-26T23:59:51.392Z,17.73
